createdAt,value
2022-08-18T00:00:32.595Z,41.26
2022-08-18T00:03:06.761Z,40.99
2022-08-18T00:05:30.599Z,42.01
2022-08-18T00:08:38.361Z,41.26
2022-08-18T00:11:02.612Z,40.86
2022-08-18T00:13:30.878Z,42.21
2022-08-18T00:16:36.217Z,41.88
2022-08-18T00:19:08.752Z,41.91
2022-08-18T00:21:32.722Z,41.71
2022-08-18T00:24:00.924Z,41.79
2022-08-18T00:26:21.003Z,42.5
2022-08-18T00:29:26.315Z,42.9
2022-08-18T00:32:31.648Z,42.83
2022-08-18T00:35:36.925Z,43.29
2022-08-18T00:38:05.183Z,44.75
2022-08-18T00:40:37.765Z,44.75
2022-08-18T00:43:01.719Z,45.26
2022-08-18T00:45:29.952Z,46.98
2022-08-18T00:48:35.228Z,46.52
2022-08-18T00:51:03.488Z,45.6
2022-08-18T00:53:31.745Z,45.48
2022-08-18T00:55:59.993Z,44.65
2022-08-18T00:58:28.235Z,45.82
2022-08-18T01:01:33.526Z,46.06
2022-08-18T01:04:01.821Z,44.99
2022-08-18T01:06:30.070Z,47.01
2022-08-18T01:09:35.332Z,46.78
2022-08-18T01:12:12.586Z,46.73
2022-08-18T01:14:31.837Z,46.47
2022-08-18T01:17:00.125Z,45.97
2022-08-18T01:19:28.362Z,47.76
2022-08-18T01:22:33.656Z,46.29
2022-08-18T01:25:01.912Z,46.72
2022-08-18T01:27:21.975Z,47.32
2022-08-18T01:30:27.259Z,45.94
2022-08-18T01:33:32.707Z,46.01
2022-08-18T01:36:00.794Z,45.9
2022-08-18T01:38:29.064Z,48.18
2022-08-18T01:41:34.454Z,47.93
2022-08-18T01:44:02.656Z,46.4
2022-08-18T01:46:30.860Z,48.68
2022-08-18T01:49:36.183Z,48.96
2022-08-18T01:52:04.430Z,48.71
2022-08-18T01:54:32.735Z,50.1
2022-08-18T01:57:00.935Z,48.1
2022-08-18T01:59:29.166Z,50
2022-08-18T02:02:34.485Z,49.86
2022-08-18T02:05:02.767Z,47.57
2022-08-18T02:07:32.676Z,48.83
2022-08-18T02:10:36.304Z,48.06
2022-08-18T02:13:04.521Z,49.71
2022-08-18T02:15:32.775Z,48.66
2022-08-18T02:18:01.026Z,48.13
2022-08-18T02:20:29.286Z,49.27
2022-08-18T02:23:34.592Z,48.82
2022-08-18T02:27:08.752Z,49.43
2022-08-18T02:30:14.094Z,47.43
2022-08-18T02:33:19.422Z,47.79
2022-08-18T02:36:25.259Z,47.3
2022-08-18T02:39:30.121Z,48.16
2022-08-18T02:42:35.385Z,47.76
2022-08-18T02:45:03.599Z,48.31
2022-08-18T02:47:33.730Z,48.45
2022-08-18T02:50:37.140Z,47.6
2022-08-18T02:53:05.417Z,48.78
2022-08-18T02:55:33.671Z,48.79
2022-08-18T02:58:01.887Z,48.95
2022-08-18T03:00:30.149Z,48.83
2022-08-18T03:03:35.429Z,48.68
2022-08-18T03:06:03.698Z,49.25
2022-08-18T03:08:31.926Z,48.85
2022-08-18T03:11:00.218Z,50.16
2022-08-18T03:13:28.460Z,49.16
2022-08-18T03:16:33.755Z,49.7
2022-08-18T03:19:02.019Z,49.09
2022-08-18T03:21:30.238Z,48.62
2022-08-18T03:24:35.571Z,48.51
2022-08-18T03:27:32.701Z,49.61
2022-08-18T03:30:00.920Z,49.02
2022-08-18T03:32:29.175Z,49.93
2022-08-18T03:35:34.469Z,48.55
2022-08-18T03:38:02.743Z,48.6
2022-08-18T03:40:30.952Z,50.18
2022-08-18T03:43:50.385Z,49.33
2022-08-18T03:46:04.520Z,49.47
2022-08-18T03:48:32.787Z,49.18
2022-08-18T03:51:03.759Z,49.98
2022-08-18T03:53:29.272Z,49.86
2022-08-18T03:56:34.608Z,49.58
2022-08-18T03:59:02.821Z,49.77
2022-08-18T04:01:31.106Z,49.85
2022-08-18T04:04:36.404Z,49.97
2022-08-18T04:07:04.772Z,49.08
2022-08-18T04:09:32.914Z,49.51
2022-08-18T04:12:01.111Z,50.85
2022-08-18T04:14:29.370Z,49.85
2022-08-18T04:17:34.680Z,51.62
2022-08-18T04:20:02.977Z,49.71
2022-08-18T04:22:31.174Z,50.13
2022-08-18T04:25:36.502Z,50.67
2022-08-18T04:27:56.553Z,51.08
2022-08-18T04:33:30.423Z,50.96
2022-08-18T04:36:35.466Z,50.09
2022-08-18T04:39:03.679Z,51.86
2022-08-18T04:41:31.956Z,50.02
2022-08-18T04:44:00.191Z,50.07
2022-08-18T04:46:28.418Z,49.5
2022-08-18T04:49:33.774Z,50.2
2022-08-18T04:52:21.839Z,51.82
2022-08-18T04:54:30.232Z,50.46
2022-08-18T04:57:35.537Z,51.46
2022-08-18T05:00:03.797Z,51.81
2022-08-18T05:02:32.017Z,51.02
2022-08-18T05:05:00.277Z,32.31
2022-08-18T05:08:05.599Z,50.34
2022-08-18T05:10:33.825Z,52.28
2022-08-18T05:13:02.072Z,51.92
2022-08-18T05:15:38.401Z,50.62
2022-08-18T05:18:35.629Z,51.46
2022-08-18T05:21:03.896Z,51.72
2022-08-18T05:23:32.164Z,52.51
2022-08-18T05:26:00.398Z,50.2
2022-08-18T05:28:20.445Z,51.16
2022-08-18T05:31:25.762Z,51.94
2022-08-18T05:34:31.046Z,52.72
2022-08-18T05:37:36.420Z,51.94
2022-08-18T05:40:08.963Z,50.65
2022-08-18T05:42:32.878Z,50.33
2022-08-18T05:45:01.120Z,52.92
2022-08-18T05:47:29.355Z,52.61
2022-08-18T05:50:34.711Z,51.41
2022-08-18T05:53:02.971Z,52.65
2022-08-18T05:55:31.183Z,50.51
2022-08-18T05:57:59.456Z,53.52
2022-08-18T06:00:27.793Z,54.42
2022-08-18T06:03:45.345Z,53.79
2022-08-18T06:06:01.214Z,54.69
2022-08-18T06:08:29.522Z,54.09
2022-08-18T06:11:34.793Z,53.45
2022-08-18T06:14:03.070Z,53.96
2022-08-18T06:16:31.283Z,53.87
2022-08-18T06:19:36.710Z,52.45
2022-08-18T06:22:04.869Z,51.6
2022-08-18T06:24:33.150Z,53.48
2022-08-18T06:27:01.363Z,51.32
2022-08-18T06:29:29.571Z,51.79
2022-08-18T06:32:34.914Z,53.72
2022-08-18T06:35:03.161Z,54
2022-08-18T06:37:31.394Z,53.31
2022-08-18T06:39:59.741Z,52.42
2022-08-18T06:42:27.906Z,51.8
2022-08-18T06:45:33.887Z,51.79
2022-08-18T06:48:01.453Z,52.42
2022-08-18T06:50:29.715Z,52.39
2022-08-18T06:54:03.884Z,52.76
2022-08-18T06:56:32.157Z,53.71
2022-08-18T06:59:00.387Z,51.78
2022-08-18T07:02:05.700Z,52.12
2022-08-18T07:04:33.959Z,50.7
2022-08-18T07:07:02.173Z,52.66
2022-08-18T07:09:30.422Z,51.76
2022-08-18T07:12:35.822Z,51.57
2022-08-18T07:15:04.021Z,51.39
2022-08-18T07:17:42.923Z,51.47
2022-08-18T07:20:00.497Z,51.63
2022-08-18T07:22:30.148Z,52.56
2022-08-18T07:25:34.039Z,52.56
2022-08-18T07:29:08.225Z,52.05
2022-08-18T07:31:36.476Z,52.06
2022-08-18T07:34:04.707Z,51.46
2022-08-18T07:36:33.015Z,52.8
2022-08-18T07:39:01.884Z,51.94
2022-08-18T07:41:29.454Z,53.29
2022-08-18T07:44:34.808Z,51.73
2022-08-18T07:47:03.066Z,51.07
2022-08-18T07:49:31.247Z,51
2022-08-18T07:51:59.590Z,50.65
2022-08-18T07:54:48.132Z,51.85
2022-08-18T07:57:33.084Z,52.2
2022-08-18T08:00:01.329Z,52.62
2022-08-18T08:03:06.650Z,51.85
2022-08-18T08:05:34.913Z,51.5
2022-08-18T08:08:03.154Z,51.22
2022-08-18T08:10:31.395Z,50.9
2022-08-18T08:13:51.701Z,52.51
2022-08-18T08:16:04.995Z,51.31
2022-08-18T08:18:33.207Z,52.63
2022-08-18T08:21:01.432Z,50.88
2022-08-18T08:23:29.671Z,53.27
2022-08-18T08:27:12.030Z,52.34
2022-08-18T08:29:40.294Z,52.76
2022-08-18T08:32:00.350Z,52.56
2022-08-18T08:34:28.586Z,54.25
2022-08-18T08:37:33.912Z,53.24
2022-08-18T08:40:02.273Z,52.8
2022-08-18T08:42:33.748Z,53.07
2022-08-18T08:45:35.711Z,52.77
2022-08-18T08:48:08.690Z,53.34
2022-08-18T08:50:32.227Z,52.43
2022-08-18T08:53:00.492Z,52.61
2022-08-18T08:55:28.727Z,51.33
2022-08-18T08:58:34.024Z,50.62
2022-08-18T09:01:02.297Z,51.43
2022-08-18T09:03:31.029Z,51.41
2022-08-18T09:06:35.840Z,51.41
2022-08-18T09:09:04.131Z,50.82
2022-08-18T09:11:32.362Z,51.07
2022-08-18T09:14:00.570Z,51.39
2022-08-18T09:16:28.830Z,51.49
2022-08-18T09:19:34.138Z,51.72
2022-08-18T09:22:02.406Z,51.46
2022-08-18T09:24:30.646Z,53.03
2022-08-18T09:27:48.793Z,52.25
2022-08-18T09:29:56.004Z,52.03
2022-08-18T09:32:24.302Z,53.76
2022-08-18T09:35:29.546Z,53.11
2022-08-18T09:38:34.890Z,52.87
2022-08-18T09:41:03.529Z,48.27
2022-08-18T09:43:31.398Z,54.85
2022-08-18T09:46:36.689Z,52.33
2022-08-18T09:49:04.929Z,53.69
2022-08-18T09:51:33.150Z,53.14
2022-08-18T09:54:01.429Z,52.56
2022-08-18T09:56:29.687Z,53.84
2022-08-18T10:00:12.048Z,52.6
2022-08-18T10:03:17.343Z,52.54
2022-08-18T10:06:23.898Z,52.37
2022-08-18T10:09:36.508Z,48.58
2022-08-18T10:12:33.296Z,47.79
2022-08-18T10:15:01.558Z,49.59
2022-08-18T10:17:29.791Z,53.18
2022-08-18T10:21:12.172Z,51.71
2022-08-18T10:24:35.397Z,50.51
2022-08-18T10:27:22.793Z,49.63
2022-08-18T10:30:19.897Z,49.89
2022-08-18T10:33:25.215Z,48.99
2022-08-18T10:36:30.541Z,49.84
2022-08-18T10:39:39.706Z,49.62
2022-08-18T10:42:04.083Z,49.66
2022-08-18T10:44:32.341Z,49.5
2022-08-18T10:47:00.601Z,49.58
2022-08-18T10:49:28.874Z,48.81
2022-08-18T10:55:02.360Z,48.68
2022-08-18T10:57:30.650Z,47.9
2022-08-18T11:03:21.546Z,48.22
2022-08-18T11:05:33.055Z,47.98
2022-08-18T11:08:00.719Z,47.91
2022-08-18T11:10:30.264Z,47.49
2022-08-18T11:13:34.295Z,46.47
2022-08-18T11:16:02.492Z,47.47
2022-08-18T11:18:30.740Z,47.31
2022-08-18T11:21:37.569Z,47.14
2022-08-18T11:24:04.372Z,45.68
2022-08-18T11:26:32.559Z,46.79
2022-08-18T11:29:00.783Z,46.75
2022-08-18T11:31:20.867Z,46.2
2022-08-18T11:34:26.159Z,46.39
2022-08-18T11:37:40.256Z,46.15
2022-08-18T11:39:59.767Z,46.33
2022-08-18T11:42:27.961Z,45.69
2022-08-18T11:45:33.328Z,45.41
2022-08-18T11:48:01.540Z,53.45
2022-08-18T11:50:29.777Z,44.56
2022-08-18T11:54:12.147Z,45.05
2022-08-18T11:57:17.438Z,46.03
2022-08-18T12:00:23.907Z,45.16
2022-08-18T12:06:33.401Z,46.52
2022-08-18T12:09:01.629Z,46.84
2022-08-18T12:11:29.958Z,45.44
2022-08-18T12:14:36.491Z,45.67
2022-08-18T12:17:03.462Z,45.06
2022-08-18T12:19:34.288Z,45.89
2022-08-18T12:22:37.008Z,45.73
2022-08-18T12:25:05.270Z,45.47
2022-08-18T12:27:33.725Z,46.18
2022-08-18T12:30:01.754Z,46.16
2022-08-18T12:32:41.631Z,46.1
2022-08-18T12:35:27.128Z,45.68
2022-08-18T12:38:32.432Z,45.95
2022-08-18T12:41:00.649Z,45.19
2022-08-18T12:43:32.192Z,45.86
2022-08-18T12:46:34.219Z,45.9
2022-08-18T12:49:02.490Z,45.78
2022-08-18T12:51:30.924Z,45.56
2022-08-18T12:54:36.054Z,45.51
2022-08-18T12:57:04.269Z,45.36
2022-08-18T12:59:33.206Z,43.59
2022-08-18T13:02:00.842Z,45.16
2022-08-18T13:04:29.038Z,44.77
2022-08-18T13:07:34.341Z,44.28
2022-08-18T13:10:02.629Z,44.62
2022-08-18T13:12:30.830Z,44.09
2022-08-18T13:15:36.174Z,43.33
2022-08-18T13:18:04.380Z,42.68
2022-08-18T13:20:32.666Z,43.17
2022-08-18T13:23:00.886Z,43.15
2022-08-18T13:25:33.362Z,43.26
2022-08-18T13:28:35.592Z,41.41
2022-08-18T13:31:39.842Z,42.29
2022-08-18T13:34:00.257Z,41.01
2022-08-18T13:36:28.909Z,41.43
2022-08-18T13:39:33.934Z,40.55
2022-08-18T13:42:01.640Z,40.56
2022-08-18T13:44:29.873Z,40.02
2022-08-18T13:47:38.147Z,40.21
2022-08-18T13:50:04.574Z,39.43
2022-08-18T13:52:35.004Z,39.42
2022-08-18T13:54:59.916Z,38.85
2022-08-18T13:57:28.164Z,39.21
2022-08-18T14:00:33.493Z,37.83
2022-08-18T14:03:02.114Z,37.93
2022-08-18T14:05:36.116Z,37.31
2022-08-18T14:08:35.308Z,37.14
2022-08-18T14:11:41.703Z,37.39
2022-08-18T14:14:40.849Z,37.3
2022-08-18T14:16:37.122Z,37.2
2022-08-18T14:19:05.349Z,37.05
2022-08-18T14:21:33.607Z,36.91
2022-08-18T14:24:01.867Z,37.01
2022-08-18T14:26:30.111Z,36.81
2022-08-18T14:29:45.878Z,37.26
2022-08-18T14:31:55.456Z,36.81
2022-08-18T14:34:27.992Z,37.03
2022-08-18T14:37:29.036Z,37.32
2022-08-18T14:40:34.329Z,37.04
2022-08-18T14:43:02.587Z,36.78
2022-08-18T14:45:34.122Z,37.71
2022-08-18T14:48:36.133Z,37.92
2022-08-18T14:51:04.368Z,37.62
2022-08-18T14:53:32.592Z,38.68
2022-08-18T14:56:00.832Z,38.44
2022-08-18T14:58:29.119Z,38.94
2022-08-18T15:01:34.668Z,38.79
2022-08-18T15:04:18.399Z,38.87
2022-08-18T15:06:30.926Z,39.09
2022-08-18T15:09:36.251Z,38.69
2022-08-18T15:12:04.475Z,38.57
2022-08-18T15:14:33.716Z,38.28
2022-08-18T15:17:00.948Z,38.54
2022-08-18T15:19:37.783Z,38.93
2022-08-18T15:22:34.517Z,38.96
2022-08-18T15:25:02.818Z,38.95
2022-08-18T15:27:42.163Z,38.95
2022-08-18T15:32:56.416Z,39.05
2022-08-18T15:35:24.678Z,38.5
2022-08-18T15:38:29.943Z,38.7
2022-08-18T15:41:35.308Z,38.44
2022-08-18T15:44:03.526Z,38.24
2022-08-18T15:46:31.756Z,38.41
2022-08-18T15:49:37.128Z,38.45
2022-08-18T15:52:05.327Z,38.7
2022-08-18T15:54:33.598Z,38.8
2022-08-18T15:57:01.840Z,39.29
2022-08-18T15:59:34.392Z,39.32
2022-08-18T16:02:35.422Z,39.19
2022-08-18T16:05:09.041Z,39.35
2022-08-18T16:07:39.844Z,39.64
2022-08-18T16:10:00.144Z,39.29
2022-08-18T16:12:28.407Z,39.41
2022-08-18T16:15:35.225Z,39.8
2022-08-18T16:18:01.945Z,39.49
2022-08-18T16:20:30.183Z,39.86
2022-08-18T16:23:36.967Z,40.1
2022-08-18T16:26:04.363Z,39.85
2022-08-18T16:28:34.673Z,40.4
2022-08-18T16:31:00.247Z,40.37
2022-08-18T16:33:20.324Z,40.66
2022-08-18T16:36:25.591Z,40.84
2022-08-18T16:39:30.953Z,40.91
2022-08-18T16:42:36.233Z,41.05
2022-08-18T16:45:04.473Z,40.76
2022-08-18T16:47:32.710Z,41.13
2022-08-18T16:50:00.992Z,41.08
2022-08-18T16:52:29.238Z,41.23
2022-08-18T16:55:34.522Z,40.84
2022-08-18T16:58:02.801Z,41.44
2022-08-18T17:00:31.071Z,41.87
2022-08-18T17:03:36.382Z,42.33
2022-08-18T17:06:04.607Z,42.36
2022-08-18T17:08:32.882Z,42.4
2022-08-18T17:11:01.070Z,42.52
2022-08-18T17:13:29.317Z,42.95
2022-08-18T17:16:34.670Z,42.93
2022-08-18T17:19:02.887Z,42.69
2022-08-18T17:24:36.470Z,42.72
2022-08-18T17:27:12.154Z,42.67
2022-08-18T17:29:32.923Z,42.72
2022-08-18T17:33:07.114Z,42.84
2022-08-18T17:35:35.396Z,43.2
2022-08-18T17:38:03.650Z,43.21
2022-08-18T17:40:31.902Z,43.19
2022-08-18T17:43:37.215Z,43.31
2022-08-18T17:46:05.423Z,43.49
2022-08-18T17:48:33.691Z,43.65
2022-08-18T17:51:01.925Z,43.87
2022-08-18T17:53:30.182Z,44.17
2022-08-18T17:56:35.905Z,44.07
2022-08-18T17:59:03.723Z,44.14
2022-08-18T18:01:32.027Z,44.14
2022-08-18T18:04:00.256Z,44.12
2022-08-18T18:06:28.460Z,44.36
2022-08-18T18:09:33.814Z,44.27
2022-08-18T18:12:02.031Z,44.26
2022-08-18T18:14:30.284Z,44.41
2022-08-18T18:17:35.602Z,44.77
2022-08-18T18:20:03.857Z,44.57
2022-08-18T18:22:32.092Z,44.53
2022-08-18T18:25:00.324Z,44.8
2022-08-18T18:27:28.570Z,44.29
2022-08-18T18:30:33.949Z,44.33
2022-08-18T18:33:31.034Z,43.99
2022-08-18T18:36:36.311Z,43.99
2022-08-18T18:39:04.576Z,43.7
2022-08-18T18:41:34.316Z,42.38
2022-08-18T18:44:01.069Z,41.97
2022-08-18T18:46:29.347Z,41.45
2022-08-18T18:49:34.626Z,41.2
2022-08-18T18:52:02.879Z,40.71
2022-08-18T18:54:31.107Z,40.49
2022-08-18T18:56:59.402Z,40.72
2022-08-18T18:59:27.657Z,39.81
2022-08-18T19:02:34.978Z,39.67
2022-08-18T19:05:01.176Z,39.45
2022-08-18T19:07:29.420Z,40.11
2022-08-18T19:10:34.774Z,40.06
2022-08-18T19:13:02.992Z,39.61
2022-08-18T19:15:33.333Z,39.68
2022-08-18T19:18:36.555Z,39.82
2022-08-18T19:22:01.686Z,39.68
2022-08-18T19:23:34.254Z,39.9
2022-08-18T19:26:01.318Z,39.96
2022-08-18T19:28:29.551Z,39.81
2022-08-18T19:31:34.851Z,39.87
2022-08-18T19:33:54.931Z,40.3
2022-08-18T19:36:23.180Z,40.22
2022-08-18T19:39:28.538Z,40.12
2022-08-18T19:42:35.329Z,39.45
2022-08-18T19:45:15.688Z,40.49
2022-08-18T19:47:30.267Z,40.44
2022-08-18T19:50:35.570Z,40.59
2022-08-18T19:53:03.862Z,40.35
2022-08-18T19:55:32.084Z,40.38
2022-08-18T19:58:38.876Z,40.08
2022-08-18T20:01:05.682Z,40.5
2022-08-18T20:03:33.918Z,40.67
2022-08-18T20:06:14.199Z,40.58
2022-08-18T20:08:30.371Z,40.41
2022-08-18T20:11:41.654Z,40.64
2022-08-18T20:14:03.971Z,40.63
2022-08-18T20:16:43.229Z,40.53
2022-08-18T20:19:17.084Z,40.73
2022-08-18T20:22:24.356Z,40.47
2022-08-18T20:25:27.713Z,41.13
2022-08-18T20:27:55.918Z,40.75
2022-08-18T20:30:24.223Z,40.85
2022-08-18T20:33:29.500Z,41.08
2022-08-18T20:35:49.545Z,41.18
2022-08-18T20:38:17.787Z,41.13
2022-08-18T20:41:23.171Z,40.9
2022-08-18T20:44:29.109Z,40.94
2022-08-18T20:46:56.688Z,41.07
2022-08-18T20:49:24.920Z,41.76
2022-08-18T20:52:31.855Z,41.51
2022-08-18T20:54:58.517Z,41.56
2022-08-18T20:57:26.723Z,41.54
2022-08-18T20:59:54.979Z,41.6
2022-08-18T21:04:14.418Z,41.57
2022-08-18T21:07:19.704Z,41.74
2022-08-18T21:10:25.032Z,41.68
2022-08-18T21:12:53.474Z,41.43
2022-08-18T21:15:21.534Z,41.8
2022-08-18T21:18:26.875Z,42.04
2022-08-18T21:20:55.099Z,41.84
2022-08-18T21:26:28.866Z,42.4
2022-08-18T21:28:58.462Z,42.42
2022-08-18T21:31:28.781Z,42.5
2022-08-18T21:34:30.451Z,42.41
2022-08-18T21:38:04.639Z,42.21
2022-08-18T21:41:09.919Z,42.21
2022-08-18T21:44:15.223Z,42.35
2022-08-18T21:47:20.568Z,42.17
2022-08-18T21:50:25.894Z,42.47
2022-08-18T21:53:31.165Z,42.43
2022-08-18T21:55:59.463Z,41.97
2022-08-18T21:58:32.812Z,42.35
2022-08-18T22:00:56.011Z,42.37
2022-08-18T22:03:24.200Z,42.48
2022-08-18T22:06:29.491Z,42.51
2022-08-18T22:08:57.737Z,42.49
2022-08-18T22:11:36.460Z,42.95
2022-08-18T22:14:32.997Z,42.64
2022-08-18T22:16:59.534Z,42.84
2022-08-18T22:19:27.770Z,43.24
2022-08-18T22:21:56.041Z,43.56
2022-08-18T22:24:24.269Z,43.95
2022-08-18T22:27:29.621Z,43.69
2022-08-18T22:29:57.821Z,43.68
2022-08-18T22:32:26.089Z,44.27
2022-08-18T22:34:54.366Z,44.6
2022-08-18T22:37:14.379Z,43.98
2022-08-18T22:40:21.441Z,43.97
2022-08-18T22:43:25.009Z,44.03
2022-08-18T22:46:30.365Z,44.12
2022-08-18T22:48:58.581Z,43.91
2022-08-18T22:51:26.821Z,43.74
2022-08-18T22:53:55.071Z,43.71
2022-08-18T22:56:24.624Z,43.89
2022-08-18T22:59:28.633Z,44
2022-08-18T23:01:56.887Z,43.98
2022-08-18T23:04:25.113Z,43.66
2022-08-18T23:07:30.444Z,43.64
2022-08-18T23:09:58.711Z,43.43
2022-08-18T23:12:26.932Z,43.86
2022-08-18T23:14:55.170Z,43.5
2022-08-18T23:17:23.435Z,43.6
2022-08-18T23:20:28.734Z,43.42
2022-08-18T23:22:57.028Z,43.8
2022-08-18T23:25:25.240Z,43.94
2022-08-18T23:27:53.495Z,43.57
2022-08-18T23:30:21.733Z,43.9
2022-08-18T23:33:27.059Z,44.23
2022-08-18T23:36:32.380Z,43.83
2022-08-18T23:38:52.388Z,43.99
2022-08-18T23:41:20.636Z,44.23
2022-08-18T23:44:27.044Z,44.11
2022-08-18T23:46:54.215Z,44.15
2022-08-18T23:49:22.459Z,43.96
2022-08-18T23:52:27.774Z,43.71
2022-08-18T23:54:56.040Z,43.48
2022-08-18T23:57:24.278Z,44.12
